sensor_id;sensor_type;location;lat;lon;timestamp;pressure;altitude;pressure_sealevel;temperature
68440;BMP180;55421;51.600;5.718;2023-05-07T00:01:24;155806.59;;;15.50
68440;BMP180;55421;51.600;5.718;2023-05-07T00:03:51;157324.00;;;15.50
68440;BMP180;55421;51.600;5.718;2023-05-07T00:06:17;158107.80;;;15.50
68440;BMP180;55421;51.600;5.718;2023-05-07T00:08:44;158003.80;;;15.50
68440;BMP180;55421;51.600;5.718;2023-05-07T00:11:10;146648.59;;;15.50
68440;BMP180;55421;51.600;5.718;2023-05-07T00:13:37;145449.59;;;15.50
68440;BMP180;55421;51.600;5.718;2023-05-07T00:16:04;142779.20;;;15.50
68440;BMP180;55421;51.600;5.718;2023-05-07T00:18:31;141935.59;;;15.50
68440;BMP180;55421;51.600;5.718;2023-05-07T00:20:57;145591.80;;;15.50
68440;BMP180;55421;51.600;5.718;2023-05-07T00:23:24;141019.20;;;15.50
68440;BMP180;55421;51.600;5.718;2023-05-07T00:25:51;140157.59;;;15.40
68440;BMP180;55421;51.600;5.718;2023-05-07T00:28:17;138025.41;;;15.40
68440;BMP180;55421;51.600;5.718;2023-05-07T00:30:44;133861.20;;;15.40
68440;BMP180;55421;51.600;5.718;2023-05-07T00:33:10;134857.80;;;15.40
68440;BMP180;55421;51.600;5.718;2023-05-07T00:35:37;132078.59;;;15.40
68440;BMP180;55421;51.600;5.718;2023-05-07T00:38:03;130191.00;;;15.40
68440;BMP180;55421;51.600;5.718;2023-05-07T00:40:30;129554.80;;;15.40
68440;BMP180;55421;51.600;5.718;2023-05-07T00:42:56;128283.60;;;15.40
68440;BMP180;55421;51.600;5.718;2023-05-07T00:45:27;126392.40;;;15.30
68440;BMP180;55421;51.600;5.718;2023-05-07T00:47:58;127793.40;;;15.32
68440;BMP180;55421;51.600;5.718;2023-05-07T00:50:26;126256.20;;;15.40
68440;BMP180;55421;51.600;5.718;2023-05-07T00:52:53;123352.20;;;15.40
68440;BMP180;55421;51.600;5.718;2023-05-07T00:55:22;126513.60;;;15.40
68440;BMP180;55421;51.600;5.718;2023-05-07T00:57:50;128117.20;;;15.30
68440;BMP180;55421;51.600;5.718;2023-05-07T01:00:18;122818.40;;;15.30
68440;BMP180;55421;51.600;5.718;2023-05-07T01:02:45;124866.60;;;15.32
68440;BMP180;55421;51.600;5.718;2023-05-07T01:05:17;125220.80;;;15.30
68440;BMP180;55421;51.600;5.718;2023-05-07T01:07:45;123011.60;;;15.40
68440;BMP180;55421;51.600;5.718;2023-05-07T01:10:13;120947.60;;;15.40
68440;BMP180;55421;51.600;5.718;2023-05-07T01:12:41;123828.20;;;15.40
68440;BMP180;55421;51.600;5.718;2023-05-07T01:15:10;123141.40;;;15.50
68440;BMP180;55421;51.600;5.718;2023-05-07T01:17:39;123827.60;;;15.50
68440;BMP180;55421;51.600;5.718;2023-05-07T01:20:08;127986.80;;;15.50
68440;BMP180;55421;51.600;5.718;2023-05-07T01:22:38;127920.80;;;15.50
68440;BMP180;55421;51.600;5.718;2023-05-07T01:25:07;129430.40;;;15.50
68440;BMP180;55421;51.600;5.718;2023-05-07T01:27:35;129762.00;;;15.50
68440;BMP180;55421;51.600;5.718;2023-05-07T01:30:06;129494.40;;;15.50
68440;BMP180;55421;51.600;5.718;2023-05-07T01:32:40;129807.40;;;15.50
68440;BMP180;55421;51.600;5.718;2023-05-07T01:35:12;129272.40;;;15.50
68440;BMP180;55421;51.600;5.718;2023-05-07T01:37:40;128849.80;;;15.40
68440;BMP180;55421;51.600;5.718;2023-05-07T01:40:09;126106.20;;;15.40
68440;BMP180;55421;51.600;5.718;2023-05-07T01:42:36;125213.60;;;15.40
68440;BMP180;55421;51.600;5.718;2023-05-07T01:45:03;115758.60;;;15.40
68440;BMP180;55421;51.600;5.718;2023-05-07T01:47:30;115469.00;;;15.32
68440;BMP180;55421;51.600;5.718;2023-05-07T01:49:58;112398.60;;;15.30
68440;BMP180;55421;51.600;5.718;2023-05-07T01:52:25;101266.80;;;15.20
68440;BMP180;55421;51.600;5.718;2023-05-07T01:54:51;96699.20;;;15.20
68440;BMP180;55421;51.600;5.718;2023-05-07T01:57:18;84873.80;;;15.20
68440;BMP180;55421;51.600;5.718;2023-05-07T01:59:44;62750.60;;;15.20
68440;BMP180;55421;51.600;5.718;2023-05-07T02:02:11;70825.20;;;15.20
68440;BMP180;55421;51.600;5.718;2023-05-07T02:04:38;77401.60;;;15.20
68440;BMP180;55421;51.600;5.718;2023-05-07T02:07:04;72801.80;;;15.10
68440;BMP180;55421;51.600;5.718;2023-05-07T02:09:31;43744.80;;;15.10
68440;BMP180;55421;51.600;5.718;2023-05-07T02:11:57;35386.00;;;15.08
68440;BMP180;55421;51.600;5.718;2023-05-07T02:14:23;34287.00;;;15.08
68440;BMP180;55421;51.600;5.718;2023-05-07T02:16:50;37094.60;;;15.06
68440;BMP180;55421;51.600;5.718;2023-05-07T02:19:17;31403.60;;;15.10
68440;BMP180;55421;51.600;5.718;2023-05-07T02:21:44;37638.80;;;15.10
68440;BMP180;55421;51.600;5.718;2023-05-07T02:24:10;23215.40;;;15.10
68440;BMP180;55421;51.600;5.718;2023-05-07T02:26:37;22668.60;;;15.10
68440;BMP180;55421;51.600;5.718;2023-05-07T02:29:03;22204.60;;;15.10
68440;BMP180;55421;51.600;5.718;2023-05-07T02:31:30;9388.80;;;15.10
68440;BMP180;55421;51.600;5.718;2023-05-07T02:33:56;56361.00;;;15.08
68440;BMP180;55421;51.600;5.718;2023-05-07T02:36:23;102005.00;;;15.00
68440;BMP180;55421;51.600;5.718;2023-05-07T02:38:49;101915.00;;;15.00
68440;BMP180;55421;51.600;5.718;2023-05-07T02:41:16;17930.60;;;15.00
68440;BMP180;55421;51.600;5.718;2023-05-07T02:43:42;11041.00;;;15.00
68440;BMP180;55421;51.600;5.718;2023-05-07T02:46:09;56283.40;;;15.00
68440;BMP180;55421;51.600;5.718;2023-05-07T02:48:36;57096.40;;;15.10
68440;BMP180;55421;51.600;5.718;2023-05-07T02:51:04;11422.40;;;15.00
68440;BMP180;55421;51.600;5.718;2023-05-07T02:53:32;148805.41;;;15.00
68440;BMP180;55421;51.600;5.718;2023-05-07T02:56:00;146543.20;;;15.10
68440;BMP180;55421;51.600;5.718;2023-05-07T02:58:28;195721.20;;;15.10
68440;BMP180;55421;51.600;5.718;2023-05-07T03:00:54;54298.00;;;15.10
68440;BMP180;55421;51.600;5.718;2023-05-07T03:03:21;26134.80;;;15.10
68440;BMP180;55421;51.600;5.718;2023-05-07T03:05:47;42001.40;;;15.10
68440;BMP180;55421;51.600;5.718;2023-05-07T03:08:14;44054.40;;;15.10
68440;BMP180;55421;51.600;5.718;2023-05-07T03:10:40;78710.20;;;15.16
68440;BMP180;55421;51.600;5.718;2023-05-07T03:13:07;90717.60;;;15.20
68440;BMP180;55421;51.600;5.718;2023-05-07T03:15:33;96360.00;;;15.20
68440;BMP180;55421;51.600;5.718;2023-05-07T03:18:00;103749.60;;;15.20
68440;BMP180;55421;51.600;5.718;2023-05-07T03:20:26;110207.80;;;15.20
68440;BMP180;55421;51.600;5.718;2023-05-07T03:22:53;111468.00;;;15.20
68440;BMP180;55421;51.600;5.718;2023-05-07T03:25:19;117190.00;;;15.18
68440;BMP180;55421;51.600;5.718;2023-05-07T03:27:46;118235.60;;;15.10
68440;BMP180;55421;51.600;5.718;2023-05-07T03:30:13;124572.40;;;15.10
68440;BMP180;55421;51.600;5.718;2023-05-07T03:32:39;72857.60;;;15.10
68440;BMP180;55421;51.600;5.718;2023-05-07T03:35:06;59507.80;;;15.10
68440;BMP180;55421;51.600;5.718;2023-05-07T03:37:33;90058.80;;;15.10
68440;BMP180;55421;51.600;5.718;2023-05-07T03:40:00;80113.80;;;15.10
68440;BMP180;55421;51.600;5.718;2023-05-07T03:42:26;67417.20;;;15.10
68440;BMP180;55421;51.600;5.718;2023-05-07T03:44:54;71603.80;;;15.02
68440;BMP180;55421;51.600;5.718;2023-05-07T03:47:21;76563.00;;;15.00
68440;BMP180;55421;51.600;5.718;2023-05-07T03:49:48;91191.00;;;15.00
68440;BMP180;55421;51.600;5.718;2023-05-07T03:52:15;72552.00;;;14.90
68440;BMP180;55421;51.600;5.718;2023-05-07T03:54:42;76679.20;;;14.90
68440;BMP180;55421;51.600;5.718;2023-05-07T03:57:09;74966.80;;;14.84
68440;BMP180;55421;51.600;5.718;2023-05-07T03:59:35;78431.40;;;14.80
68440;BMP180;55421;51.600;5.718;2023-05-07T04:02:02;36954.00;;;14.80
68440;BMP180;55421;51.600;5.718;2023-05-07T04:04:28;29310.80;;;14.80
68440;BMP180;55421;51.600;5.718;2023-05-07T04:06:59;61198.20;;;14.70
68440;BMP180;55421;51.600;5.718;2023-05-07T04:09:29;103629.00;;;14.70
68440;BMP180;55421;51.600;5.718;2023-05-07T04:11:55;26850.00;;;14.70
68440;BMP180;55421;51.600;5.718;2023-05-07T04:14:22;17307.60;;;14.70
68440;BMP180;55421;51.600;5.718;2023-05-07T04:16:49;103985.00;;;14.70
68440;BMP180;55421;51.600;5.718;2023-05-07T04:19:15;10491.80;;;14.70
68440;BMP180;55421;51.600;5.718;2023-05-07T04:21:41;21283.80;;;14.70
68440;BMP180;55421;51.600;5.718;2023-05-07T04:24:09;21086.20;;;14.78
68440;BMP180;55421;51.600;5.718;2023-05-07T04:26:35;39942.80;;;14.78
68440;BMP180;55421;51.600;5.718;2023-05-07T04:29:02;63476.60;;;14.80
68440;BMP180;55421;51.600;5.718;2023-05-07T04:31:29;72888.20;;;14.80
68440;BMP180;55421;51.600;5.718;2023-05-07T04:33:56;51658.60;;;14.80
68440;BMP180;55421;51.600;5.718;2023-05-07T04:36:23;70674.40;;;14.80
68440;BMP180;55421;51.600;5.718;2023-05-07T04:38:53;67907.00;;;14.80
68440;BMP180;55421;51.600;5.718;2023-05-07T04:41:20;82287.80;;;14.80
68440;BMP180;55421;51.600;5.718;2023-05-07T04:43:47;76107.80;;;14.80
68440;BMP180;55421;51.600;5.718;2023-05-07T04:46:13;67684.40;;;14.80
68440;BMP180;55421;51.600;5.718;2023-05-07T04:48:40;53732.00;;;14.80
68440;BMP180;55421;51.600;5.718;2023-05-07T04:51:06;53678.00;;;14.80
68440;BMP180;55421;51.600;5.718;2023-05-07T04:53:33;43076.20;;;14.80
68440;BMP180;55421;51.600;5.718;2023-05-07T04:56:00;33479.60;;;14.76
68440;BMP180;55421;51.600;5.718;2023-05-07T04:58:27;30083.00;;;14.74
68440;BMP180;55421;51.600;5.718;2023-05-07T05:00:53;24548.00;;;14.72
68440;BMP180;55421;51.600;5.718;2023-05-07T05:03:20;18574.00;;;14.78
68440;BMP180;55421;51.600;5.718;2023-05-07T05:05:50;25423.00;;;14.80
68440;BMP180;55421;51.600;5.718;2023-05-07T05:08:18;21535.00;;;14.80
68440;BMP180;55421;51.600;5.718;2023-05-07T05:10:45;102539.00;;;14.80
68440;BMP180;55421;51.600;5.718;2023-05-07T05:13:11;240385.41;;;14.80
68440;BMP180;55421;51.600;5.718;2023-05-07T05:15:39;104084.80;;;14.80
68440;BMP180;55421;51.600;5.718;2023-05-07T05:18:05;9146.80;;;14.82
68440;BMP180;55421;51.600;5.718;2023-05-07T05:20:32;22794.80;;;14.90
68440;BMP180;55421;51.600;5.718;2023-05-07T05:22:58;9861.80;;;14.90
68440;BMP180;55421;51.600;5.718;2023-05-07T05:25:25;28631.80;;;14.90
68440;BMP180;55421;51.600;5.718;2023-05-07T05:27:51;38902.60;;;15.00
68440;BMP180;55421;51.600;5.718;2023-05-07T05:30:18;38244.60;;;15.00
68440;BMP180;55421;51.600;5.718;2023-05-07T05:32:44;33637.00;;;15.04
68440;BMP180;55421;51.600;5.718;2023-05-07T05:35:11;33324.40;;;15.10
68440;BMP180;55421;51.600;5.718;2023-05-07T05:37:37;36591.60;;;15.20
68440;BMP180;55421;51.600;5.718;2023-05-07T05:40:05;55254.00;;;15.22
68440;BMP180;55421;51.600;5.718;2023-05-07T05:42:31;47989.00;;;15.30
68440;BMP180;55421;51.600;5.718;2023-05-07T05:44:58;40494.20;;;15.30
68440;BMP180;55421;51.600;5.718;2023-05-07T05:47:24;53539.60;;;15.40
68440;BMP180;55421;51.600;5.718;2023-05-07T05:49:51;51607.80;;;15.40
68440;BMP180;55421;51.600;5.718;2023-05-07T05:52:17;73322.20;;;15.40
68440;BMP180;55421;51.600;5.718;2023-05-07T05:54:44;30881.80;;;15.42
68440;BMP180;55421;51.600;5.718;2023-05-07T05:57:10;48239.00;;;15.50
68440;BMP180;55421;51.600;5.718;2023-05-07T05:59:37;52962.80;;;15.50
68440;BMP180;55421;51.600;5.718;2023-05-07T06:02:03;64610.20;;;15.50
68440;BMP180;55421;51.600;5.718;2023-05-07T06:04:30;56038.20;;;15.50
68440;BMP180;55421;51.600;5.718;2023-05-07T06:06:56;42322.00;;;15.50
68440;BMP180;55421;51.600;5.718;2023-05-07T06:09:23;58187.60;;;15.50
68440;BMP180;55421;51.600;5.718;2023-05-07T06:11:49;40722.00;;;15.60
68440;BMP180;55421;51.600;5.718;2023-05-07T06:14:16;67127.60;;;15.60
68440;BMP180;55421;51.600;5.718;2023-05-07T06:16:42;53525.40;;;15.62
68440;BMP180;55421;51.600;5.718;2023-05-07T06:19:09;94338.40;;;15.70
68440;BMP180;55421;51.600;5.718;2023-05-07T06:21:35;87192.80;;;15.70
68440;BMP180;55421;51.600;5.718;2023-05-07T06:24:02;101253.00;;;15.76
68440;BMP180;55421;51.600;5.718;2023-05-07T06:26:28;106296.20;;;15.80
68440;BMP180;55421;51.600;5.718;2023-05-07T06:28:55;105036.60;;;15.80
68440;BMP180;55421;51.600;5.718;2023-05-07T06:31:21;131798.00;;;15.90
68440;BMP180;55421;51.600;5.718;2023-05-07T06:33:49;137227.80;;;15.90
68440;BMP180;55421;51.600;5.718;2023-05-07T06:36:16;139793.20;;;15.94
68440;BMP180;55421;51.600;5.718;2023-05-07T06:38:42;139348.41;;;16.00
68440;BMP180;55421;51.600;5.718;2023-05-07T06:41:09;136448.59;;;16.00
68440;BMP180;55421;51.600;5.718;2023-05-07T06:43:35;141473.00;;;16.00
68440;BMP180;55421;51.600;5.718;2023-05-07T06:46:02;138336.41;;;16.04
68440;BMP180;55421;51.600;5.718;2023-05-07T06:48:28;133458.59;;;16.10
68440;BMP180;55421;51.600;5.718;2023-05-07T06:50:55;131011.40;;;16.10
68440;BMP180;55421;51.600;5.718;2023-05-07T06:53:24;129731.20;;;16.10
68440;BMP180;55421;51.600;5.718;2023-05-07T06:55:50;126432.00;;;16.20
68440;BMP180;55421;51.600;5.718;2023-05-07T06:58:18;131699.20;;;16.20
68440;BMP180;55421;51.600;5.718;2023-05-07T07:00:44;128061.00;;;16.28
68440;BMP180;55421;51.600;5.718;2023-05-07T07:03:12;123216.00;;;16.30
68440;BMP180;55421;51.600;5.718;2023-05-07T07:05:41;129779.20;;;16.40
68440;BMP180;55421;51.600;5.718;2023-05-07T07:08:09;131600.59;;;16.40
68440;BMP180;55421;51.600;5.718;2023-05-07T07:10:35;133976.59;;;16.40
68440;BMP180;55421;51.600;5.718;2023-05-07T07:13:02;121964.40;;;16.44
68440;BMP180;55421;51.600;5.718;2023-05-07T07:15:28;114957.40;;;16.42
68440;BMP180;55421;51.600;5.718;2023-05-07T07:17:55;101674.40;;;16.40
68440;BMP180;55421;51.600;5.718;2023-05-07T07:20:21;102362.80;;;16.40
68440;BMP180;55421;51.600;5.718;2023-05-07T07:22:48;97264.20;;;16.40
68440;BMP180;55421;51.600;5.718;2023-05-07T07:25:14;82026.00;;;16.40
68440;BMP180;55421;51.600;5.718;2023-05-07T07:27:41;73092.00;;;16.40
68440;BMP180;55421;51.600;5.718;2023-05-07T07:30:08;78327.20;;;16.40
68440;BMP180;55421;51.600;5.718;2023-05-07T07:32:35;59090.00;;;16.40
68440;BMP180;55421;51.600;5.718;2023-05-07T07:35:01;41522.60;;;16.40
68440;BMP180;55421;51.600;5.718;2023-05-07T07:37:28;83563.40;;;16.40
68440;BMP180;55421;51.600;5.718;2023-05-07T07:39:56;49766.80;;;16.40
68440;BMP180;55421;51.600;5.718;2023-05-07T07:42:22;76136.20;;;16.42
68440;BMP180;55421;51.600;5.718;2023-05-07T07:44:49;73186.60;;;16.50
68440;BMP180;55421;51.600;5.718;2023-05-07T07:47:15;41464.20;;;16.50
68440;BMP180;55421;51.600;5.718;2023-05-07T07:49:42;56433.80;;;16.50
68440;BMP180;55421;51.600;5.718;2023-05-07T07:52:08;53545.00;;;16.50
68440;BMP180;55421;51.600;5.718;2023-05-07T07:54:35;53322.00;;;16.60
68440;BMP180;55421;51.600;5.718;2023-05-07T07:57:01;57962.80;;;16.60
68440;BMP180;55421;51.600;5.718;2023-05-07T07:59:28;56132.80;;;16.70
68440;BMP180;55421;51.600;5.718;2023-05-07T08:01:54;63427.40;;;16.70
68440;BMP180;55421;51.600;5.718;2023-05-07T08:04:23;69569.00;;;16.80
68440;BMP180;55421;51.600;5.718;2023-05-07T08:06:49;82477.00;;;16.90
68440;BMP180;55421;51.600;5.718;2023-05-07T08:09:16;80339.00;;;16.90
68440;BMP180;55421;51.600;5.718;2023-05-07T08:11:42;91686.20;;;17.00
68440;BMP180;55421;51.600;5.718;2023-05-07T08:14:09;102098.20;;;17.10
68440;BMP180;55421;51.600;5.718;2023-05-07T08:16:36;116305.40;;;17.20
68440;BMP180;55421;51.600;5.718;2023-05-07T08:19:02;127726.40;;;17.30
68440;BMP180;55421;51.600;5.718;2023-05-07T08:21:29;155851.20;;;17.40
68440;BMP180;55421;51.600;5.718;2023-05-07T08:23:57;165611.80;;;17.50
68440;BMP180;55421;51.600;5.718;2023-05-07T08:26:23;166996.00;;;17.60
68440;BMP180;55421;51.600;5.718;2023-05-07T08:28:50;167644.20;;;17.70
68440;BMP180;55421;51.600;5.718;2023-05-07T08:31:16;167782.59;;;17.80
68440;BMP180;55421;51.600;5.718;2023-05-07T08:33:43;167774.59;;;17.90
68440;BMP180;55421;51.600;5.718;2023-05-07T08:36:09;167710.00;;;18.00
68440;BMP180;55421;51.600;5.718;2023-05-07T08:38:36;167976.41;;;18.20
68440;BMP180;55421;51.600;5.718;2023-05-07T08:41:02;167987.00;;;18.40
68440;BMP180;55421;51.600;5.718;2023-05-07T08:43:32;167998.20;;;18.58
68440;BMP180;55421;51.600;5.718;2023-05-07T08:46:01;167840.80;;;18.70
68440;BMP180;55421;51.600;5.718;2023-05-07T08:48:29;168123.80;;;18.80
68440;BMP180;55421;51.600;5.718;2023-05-07T08:50:58;167979.41;;;19.00
68440;BMP180;55421;51.600;5.718;2023-05-07T08:53:25;167459.41;;;19.06
68440;BMP180;55421;51.600;5.718;2023-05-07T08:55:53;166994.80;;;19.10
68440;BMP180;55421;51.600;5.718;2023-05-07T08:58:19;167216.80;;;19.10
68440;BMP180;55421;51.600;5.718;2023-05-07T09:00:47;167043.00;;;19.12
68440;BMP180;55421;51.600;5.718;2023-05-07T09:03:14;167687.00;;;19.20
68440;BMP180;55421;51.600;5.718;2023-05-07T09:05:40;167967.20;;;19.38
68440;BMP180;55421;51.600;5.718;2023-05-07T09:08:07;168181.80;;;19.50
68440;BMP180;55421;51.600;5.718;2023-05-07T09:10:36;167968.59;;;19.66
68440;BMP180;55421;51.600;5.718;2023-05-07T09:13:03;168132.00;;;19.80
68440;BMP180;55421;51.600;5.718;2023-05-07T09:15:30;167837.20;;;19.80
68440;BMP180;55421;51.600;5.718;2023-05-07T09:18:00;167743.20;;;19.80
68440;BMP180;55421;51.600;5.718;2023-05-07T09:20:30;167647.00;;;19.70
68440;BMP180;55421;51.600;5.718;2023-05-07T09:22:57;167808.80;;;19.70
68440;BMP180;55421;51.600;5.718;2023-05-07T09:25:35;167424.80;;;19.70
68440;BMP180;55421;51.600;5.718;2023-05-07T09:28:04;167418.80;;;19.70
68440;BMP180;55421;51.600;5.718;2023-05-07T09:30:33;167717.80;;;19.70
68440;BMP180;55421;51.600;5.718;2023-05-07T09:33:02;167949.59;;;19.70
68440;BMP180;55421;51.600;5.718;2023-05-07T09:35:30;168059.41;;;19.70
68440;BMP180;55421;51.600;5.718;2023-05-07T09:37:59;167923.20;;;19.70
68440;BMP180;55421;51.600;5.718;2023-05-07T09:40:29;167812.41;;;19.70
68440;BMP180;55421;51.600;5.718;2023-05-07T09:43:09;167730.00;;;19.78
68440;BMP180;55421;51.600;5.718;2023-05-07T09:45:37;167787.00;;;19.80
68440;BMP180;55421;51.600;5.718;2023-05-07T09:48:06;167731.59;;;19.80
68440;BMP180;55421;51.600;5.718;2023-05-07T09:50:42;167893.41;;;19.90
68440;BMP180;55421;51.600;5.718;2023-05-07T09:53:11;167663.20;;;19.98
68440;BMP180;55421;51.600;5.718;2023-05-07T09:55:39;167171.41;;;20.00
68440;BMP180;55421;51.600;5.718;2023-05-07T09:58:07;167580.41;;;20.00
68440;BMP180;55421;51.600;5.718;2023-05-07T10:00:35;167273.41;;;20.10
68440;BMP180;55421;51.600;5.718;2023-05-07T10:03:03;167725.00;;;20.20
68440;BMP180;55421;51.600;5.718;2023-05-07T10:05:30;167519.00;;;20.30
68440;BMP180;55421;51.600;5.718;2023-05-07T10:07:58;167222.41;;;20.30
68440;BMP180;55421;51.600;5.718;2023-05-07T10:10:26;166095.20;;;20.30
68440;BMP180;55421;51.600;5.718;2023-05-07T10:12:54;165762.59;;;20.40
68440;BMP180;55421;51.600;5.718;2023-05-07T10:15:21;164631.00;;;20.40
68440;BMP180;55421;51.600;5.718;2023-05-07T10:17:48;163049.20;;;20.50
68440;BMP180;55421;51.600;5.718;2023-05-07T10:20:15;161379.80;;;20.50
68440;BMP180;55421;51.600;5.718;2023-05-07T10:22:47;160587.80;;;20.50
68440;BMP180;55421;51.600;5.718;2023-05-07T10:25:22;159747.80;;;20.60
68440;BMP180;55421;51.600;5.718;2023-05-07T10:27:52;158746.41;;;20.68
68440;BMP180;55421;51.600;5.718;2023-05-07T10:30:55;156445.59;;;20.70
68440;BMP180;55421;51.600;5.718;2023-05-07T10:33:29;157018.00;;;20.70
68440;BMP180;55421;51.600;5.718;2023-05-07T10:36:00;155694.20;;;20.70
68440;BMP180;55421;51.600;5.718;2023-05-07T10:38:28;154855.80;;;20.70
68440;BMP180;55421;51.600;5.718;2023-05-07T10:40:55;155023.20;;;20.70
68440;BMP180;55421;51.600;5.718;2023-05-07T10:43:21;154107.80;;;20.76
68440;BMP180;55421;51.600;5.718;2023-05-07T10:46:23;154761.80;;;20.80
68440;BMP180;55421;51.600;5.718;2023-05-07T10:51:35;154576.80;;;21.00
68440;BMP180;55421;51.600;5.718;2023-05-07T10:56:39;150326.41;;;21.00
68440;BMP180;55421;51.600;5.718;2023-05-07T11:01:59;148753.80;;;21.00
68440;BMP180;55421;51.600;5.718;2023-05-07T11:04:25;148970.20;;;21.00
68440;BMP180;55421;51.600;5.718;2023-05-07T11:15:12;146092.80;;;21.20
68440;BMP180;55421;51.600;5.718;2023-05-07T11:17:57;146757.00;;;21.28
68440;BMP180;55421;51.600;5.718;2023-05-07T11:20:56;144384.20;;;21.30
68440;BMP180;55421;51.600;5.718;2023-05-07T11:26:02;140347.80;;;21.40
68440;BMP180;55421;51.600;5.718;2023-05-07T11:28:31;137076.00;;;21.40
68440;BMP180;55421;51.600;5.718;2023-05-07T11:30:57;136530.00;;;21.50
68440;BMP180;55421;51.600;5.718;2023-05-07T11:33:25;133555.00;;;21.52
68440;BMP180;55421;51.600;5.718;2023-05-07T11:35:55;133254.59;;;21.60
68440;BMP180;55421;51.600;5.718;2023-05-07T11:38:22;130357.60;;;21.70
68440;BMP180;55421;51.600;5.718;2023-05-07T11:40:55;129987.20;;;21.80
68440;BMP180;55421;51.600;5.718;2023-05-07T11:43:22;132392.41;;;21.96
68440;BMP180;55421;51.600;5.718;2023-05-07T11:45:50;132055.59;;;22.10
68440;BMP180;55421;51.600;5.718;2023-05-07T11:48:17;129061.20;;;22.10
68440;BMP180;55421;51.600;5.718;2023-05-07T11:53:27;128495.20;;;22.30
68440;BMP180;55421;51.600;5.718;2023-05-07T11:55:57;129742.00;;;22.30
68440;BMP180;55421;51.600;5.718;2023-05-07T11:58:25;126503.80;;;22.40
68440;BMP180;55421;51.600;5.718;2023-05-07T12:00:54;124068.80;;;22.40
68440;BMP180;55421;51.600;5.718;2023-05-07T12:03:21;121903.20;;;22.50
68440;BMP180;55421;51.600;5.718;2023-05-07T12:05:48;121122.20;;;22.50
68440;BMP180;55421;51.600;5.718;2023-05-07T12:08:15;121536.60;;;22.40
68440;BMP180;55421;51.600;5.718;2023-05-07T12:10:44;121337.40;;;22.40
68440;BMP180;55421;51.600;5.718;2023-05-07T12:13:23;119022.40;;;22.40
68440;BMP180;55421;51.600;5.718;2023-05-07T12:15:52;118478.00;;;22.40
68440;BMP180;55421;51.600;5.718;2023-05-07T12:18:19;117563.20;;;22.40
68440;BMP180;55421;51.600;5.718;2023-05-07T12:20:47;114684.60;;;22.40
68440;BMP180;55421;51.600;5.718;2023-05-07T12:23:14;111347.40;;;22.30
68440;BMP180;55421;51.600;5.718;2023-05-07T12:25:43;110463.40;;;22.22
68440;BMP180;55421;51.600;5.718;2023-05-07T12:28:18;106735.20;;;22.20
68440;BMP180;55421;51.600;5.718;2023-05-07T12:30:47;101725.60;;;22.10
68440;BMP180;55421;51.600;5.718;2023-05-07T12:33:19;100371.00;;;22.00
68440;BMP180;55421;51.600;5.718;2023-05-07T12:35:49;101780.20;;;21.90
68440;BMP180;55421;51.600;5.718;2023-05-07T12:38:17;103492.60;;;21.90
68440;BMP180;55421;51.600;5.718;2023-05-07T12:40:47;101950.80;;;21.80
68440;BMP180;55421;51.600;5.718;2023-05-07T12:43:23;102916.40;;;21.70
68440;BMP180;55421;51.600;5.718;2023-05-07T12:45:53;102513.80;;;21.60
68440;BMP180;55421;51.600;5.718;2023-05-07T12:48:21;111443.20;;;21.50
68440;BMP180;55421;51.600;5.718;2023-05-07T12:50:52;117146.20;;;21.42
68440;BMP180;55421;51.600;5.718;2023-05-07T12:53:22;120602.80;;;21.40
68440;BMP180;55421;51.600;5.718;2023-05-07T12:55:54;122026.40;;;21.30
68440;BMP180;55421;51.600;5.718;2023-05-07T12:58:34;122842.60;;;21.20
68440;BMP180;55421;51.600;5.718;2023-05-07T13:01:06;125029.60;;;21.10
68440;BMP180;55421;51.600;5.718;2023-05-07T13:03:37;124819.40;;;21.02
68440;BMP180;55421;51.600;5.718;2023-05-07T13:06:09;125565.80;;;21.00
68440;BMP180;55421;51.600;5.718;2023-05-07T13:08:39;128245.60;;;20.90
68440;BMP180;55421;51.600;5.718;2023-05-07T13:11:12;127901.40;;;20.90
68440;BMP180;55421;51.600;5.718;2023-05-07T13:13:40;129169.60;;;20.80
68440;BMP180;55421;51.600;5.718;2023-05-07T13:16:09;129243.60;;;20.80
68440;BMP180;55421;51.600;5.718;2023-05-07T13:18:39;130599.80;;;20.70
68440;BMP180;55421;51.600;5.718;2023-05-07T13:21:06;131864.41;;;20.70
68440;BMP180;55421;51.600;5.718;2023-05-07T13:23:32;131756.41;;;20.70
68440;BMP180;55421;51.600;5.718;2023-05-07T13:25:59;133156.20;;;20.70
68440;BMP180;55421;51.600;5.718;2023-05-07T13:28:26;133244.00;;;20.60
68440;BMP180;55421;51.600;5.718;2023-05-07T13:30:53;136679.20;;;20.60
68440;BMP180;55421;51.600;5.718;2023-05-07T13:33:20;135709.00;;;20.50
68440;BMP180;55421;51.600;5.718;2023-05-07T13:35:47;126551.80;;;20.22
68440;BMP180;55421;51.600;5.718;2023-05-07T13:38:13;122746.40;;;19.88
68440;BMP180;55421;51.600;5.718;2023-05-07T13:40:42;120310.20;;;19.50
68440;BMP180;55421;51.600;5.718;2023-05-07T13:43:08;118137.20;;;19.20
68440;BMP180;55421;51.600;5.718;2023-05-07T13:45:35;118100.20;;;18.90
68440;BMP180;55421;51.600;5.718;2023-05-07T13:48:01;117685.60;;;18.70
68440;BMP180;55421;51.600;5.718;2023-05-07T13:50:28;119126.60;;;18.50
68440;BMP180;55421;51.600;5.718;2023-05-07T13:52:56;120399.60;;;18.30
68440;BMP180;55421;51.600;5.718;2023-05-07T13:55:24;119351.20;;;18.16
68440;BMP180;55421;51.600;5.718;2023-05-07T13:58:00;118306.00;;;18.00
68440;BMP180;55421;51.600;5.718;2023-05-07T14:00:28;122345.40;;;17.90
68440;BMP180;55421;51.600;5.718;2023-05-07T14:02:56;124555.20;;;17.80
68440;BMP180;55421;51.600;5.718;2023-05-07T14:05:23;124598.00;;;17.68
68440;BMP180;55421;51.600;5.718;2023-05-07T14:07:51;126403.20;;;17.58
68440;BMP180;55421;51.600;5.718;2023-05-07T14:10:19;130537.40;;;17.44
68440;BMP180;55421;51.600;5.718;2023-05-07T14:12:46;133644.20;;;17.38
68440;BMP180;55421;51.600;5.718;2023-05-07T14:15:14;137861.20;;;17.30
68440;BMP180;55421;51.600;5.718;2023-05-07T14:17:42;140315.41;;;17.24
68440;BMP180;55421;51.600;5.718;2023-05-07T14:20:10;142883.80;;;17.20
68440;BMP180;55421;51.600;5.718;2023-05-07T14:22:37;145417.00;;;17.20
68440;BMP180;55421;51.600;5.718;2023-05-07T14:25:04;147237.59;;;17.20
68440;BMP180;55421;51.600;5.718;2023-05-07T14:27:31;149007.00;;;17.20